createdAt,value
2018-10-06T00:02:13.025Z,96.64
2018-10-06T00:05:17.707Z,96.24
2018-10-06T00:08:22.665Z,96.48
2018-10-06T00:11:27.539Z,96.50
2018-10-06T00:14:32.380Z,96.65
2018-10-06T00:17:37.253Z,96.74
2018-10-06T00:20:42.177Z,96.67
2018-10-06T00:23:46.890Z,96.44
2018-10-06T00:26:51.935Z,97.26
2018-10-06T00:29:57.129Z,97.03
2018-10-06T00:33:01.893Z,97.15
2018-10-06T00:36:06.851Z,96.73
2018-10-06T00:39:11.511Z,97.09
2018-10-06T00:42:16.184Z,97.19
2018-10-06T00:45:20.881Z,96.81
2018-10-06T00:48:25.669Z,97.43
2018-10-06T00:51:30.557Z,97.19
2018-10-06T00:54:35.226Z,97.53
2018-10-06T00:57:39.923Z,97.39
2018-10-06T01:00:44.667Z,97.34
2018-10-06T01:03:49.418Z,97.48
2018-10-06T01:06:54.340Z,97.35
2018-10-06T01:09:59.069Z,97.53
2018-10-06T01:13:03.915Z,97.61
2018-10-06T01:16:08.970Z,97.35
2018-10-06T01:19:13.733Z,97.63
2018-10-06T01:22:18.617Z,97.11
2018-10-06T01:25:23.371Z,97.24
2018-10-06T01:28:28.220Z,97.53
2018-10-06T01:31:33.125Z,97.23
2018-10-06T01:34:37.852Z,97.79
2018-10-06T01:37:42.604Z,97.69
2018-10-06T01:40:47.433Z,97.53
2018-10-06T01:43:52.637Z,97.53
2018-10-06T01:46:57.491Z,97.68
2018-10-06T01:50:02.654Z,97.15
2018-10-06T01:53:07.352Z,97.94
2018-10-06T01:56:12.193Z,97.52
2018-10-06T01:59:16.909Z,97.60
2018-10-06T02:02:21.627Z,97.62
2018-10-06T02:05:26.360Z,98.00
2018-10-06T02:08:31.116Z,97.03
2018-10-06T02:11:35.977Z,97.16
2018-10-06T02:14:40.771Z,96.77
2018-10-06T02:17:45.672Z,97.11
2018-10-06T02:20:50.421Z,97.24
2018-10-06T02:23:55.242Z,97.04
2018-10-06T02:26:59.873Z,97.61
2018-10-06T02:30:05.100Z,97.60
2018-10-06T02:33:09.880Z,97.54
2018-10-06T02:36:14.798Z,97.26
2018-10-06T02:39:19.534Z,97.50
2018-10-06T02:42:24.397Z,97.22
2018-10-06T02:45:29.097Z,97.58
2018-10-06T02:48:33.726Z,97.35
2018-10-06T02:51:38.458Z,98.01
2018-10-06T02:54:43.228Z,97.56
2018-10-06T02:57:47.904Z,97.65
2018-10-06T03:00:52.826Z,97.32
2018-10-06T03:03:57.943Z,97.38
2018-10-06T03:07:02.669Z,97.61
2018-10-06T03:10:07.532Z,97.21
2018-10-06T03:13:12.471Z,97.45
2018-10-06T03:16:17.657Z,97.47
2018-10-06T03:19:22.442Z,97.04
2018-10-06T03:22:27.285Z,97.13
2018-10-06T03:25:32.169Z,97.18
2018-10-06T03:28:37.087Z,96.73
2018-10-06T03:31:41.954Z,96.80
2018-10-06T03:34:46.842Z,96.90
2018-10-06T03:37:51.616Z,97.21
2018-10-06T03:40:56.418Z,96.90
2018-10-06T03:44:01.137Z,97.04
2018-10-06T03:47:07.080Z,97.38
2018-10-06T03:50:11.687Z,97.96
2018-10-06T03:53:35.231Z,97.58
2018-10-06T03:56:40.949Z,97.87
2018-10-06T03:59:45.532Z,98.02
2018-10-06T04:02:50.340Z,97.64
2018-10-06T04:05:55.024Z,97.88
2018-10-06T04:09:00.219Z,97.92
2018-10-06T04:12:04.780Z,98.07
2018-10-06T04:15:09.544Z,98.51
2018-10-06T04:18:14.524Z,98.51
2018-10-06T04:21:19.186Z,98.52
2018-10-06T04:24:23.977Z,98.15
2018-10-06T04:27:28.804Z,97.94
2018-10-06T04:30:33.514Z,98.24
2018-10-06T04:33:38.226Z,98.57
2018-10-06T04:36:42.878Z,98.42
2018-10-06T04:39:47.491Z,98.50
2018-10-06T04:42:52.200Z,98.12
2018-10-06T04:45:56.713Z,97.88
2018-10-06T04:49:01.343Z,98.02
2018-10-06T04:52:06.168Z,97.46
2018-10-06T04:55:10.916Z,97.48
2018-10-06T04:58:15.715Z,98.04
2018-10-06T05:01:20.468Z,97.98
2018-10-06T05:04:25.188Z,97.99
2018-10-06T05:07:30.008Z,97.77
2018-10-06T05:10:34.573Z,98.38
2018-10-06T05:13:39.344Z,97.96
2018-10-06T05:16:43.936Z,97.68
2018-10-06T05:19:48.521Z,97.39
2018-10-06T05:22:53.177Z,97.55
2018-10-06T05:25:57.804Z,98.39
2018-10-06T05:29:02.364Z,98.29
2018-10-06T05:32:07.291Z,97.92
2018-10-06T05:35:11.955Z,98.18
2018-10-06T05:38:16.659Z,97.67
2018-10-06T05:41:21.186Z,98.00
2018-10-06T05:44:25.825Z,97.20
2018-10-06T05:47:30.925Z,97.78
2018-10-06T05:50:35.478Z,96.94
2018-10-06T05:53:40.102Z,96.94
2018-10-06T05:56:44.673Z,97.72
2018-10-06T05:59:49.357Z,97.58
2018-10-06T06:02:54.046Z,97.70
2018-10-06T06:05:58.570Z,97.23
2018-10-06T06:09:03.752Z,97.13
2018-10-06T06:12:08.443Z,97.17
2018-10-06T06:15:13.070Z,96.51
2018-10-06T06:18:17.677Z,96.88
2018-10-06T06:21:22.417Z,96.71
2018-10-06T06:24:27.217Z,96.37
2018-10-06T06:27:31.894Z,96.55
2018-10-06T06:30:36.623Z,96.70
2018-10-06T06:33:41.323Z,96.66
2018-10-06T06:36:45.996Z,96.59
2018-10-06T06:39:50.879Z,95.61
2018-10-06T06:42:55.508Z,94.14
2018-10-06T06:46:00.234Z,93.19
2018-10-06T06:49:05.127Z,93.22
2018-10-06T06:52:09.738Z,93.08
2018-10-06T06:55:14.607Z,92.72
2018-10-06T06:58:19.519Z,92.15
2018-10-06T07:01:24.325Z,92.55
2018-10-06T07:04:28.963Z,92.99
2018-10-06T07:07:33.752Z,92.59
2018-10-06T07:10:38.423Z,91.57
2018-10-06T07:13:44.336Z,90.87
2018-10-06T07:16:49.010Z,88.41
2018-10-06T07:19:53.975Z,87.88
2018-10-06T07:22:58.818Z,88.29
2018-10-06T07:26:03.879Z,86.06
2018-10-06T07:29:08.572Z,85.92
2018-10-06T07:32:13.130Z,84.89
2018-10-06T07:35:17.976Z,84.14
2018-10-06T07:38:22.736Z,84.96
2018-10-06T07:41:27.409Z,84.21
2018-10-06T07:44:32.184Z,84.79
2018-10-06T07:47:36.855Z,85.09
2018-10-06T07:50:41.546Z,83.64
2018-10-06T07:53:46.259Z,84.21
2018-10-06T07:56:50.950Z,84.16
2018-10-06T07:59:55.714Z,84.16
2018-10-06T08:03:00.793Z,84.12
2018-10-06T08:06:05.552Z,82.76
2018-10-06T08:09:11.004Z,82.22
2018-10-06T08:12:15.734Z,81.96
2018-10-06T08:15:20.387Z,81.78
2018-10-06T08:18:25.280Z,81.27
2018-10-06T08:21:31.246Z,79.91
2018-10-06T08:24:35.943Z,78.54
2018-10-06T08:27:40.641Z,77.18
2018-10-06T08:30:45.249Z,77.34
2018-10-06T08:33:50.857Z,76.28
2018-10-06T08:36:55.496Z,74.30
2018-10-06T08:40:00.053Z,74.56
2018-10-06T08:43:04.837Z,73.45
2018-10-06T08:46:09.549Z,71.50
2018-10-06T08:49:14.198Z,72.30
2018-10-06T08:52:18.988Z,71.56
2018-10-06T08:55:23.825Z,71.25
2018-10-06T08:58:28.726Z,70.90
2018-10-06T09:01:33.418Z,69.88
2018-10-06T09:04:38.133Z,68.00
2018-10-06T09:07:42.753Z,69.54
2018-10-06T09:10:47.531Z,67.72
2018-10-06T09:13:52.282Z,66.16
2018-10-06T09:16:57.135Z,66.28
2018-10-06T09:20:01.911Z,64.35
2018-10-06T09:23:06.729Z,66.48
2018-10-06T09:26:11.462Z,65.79
2018-10-06T09:29:16.289Z,64.11
2018-10-06T09:32:21.018Z,64.83
2018-10-06T09:35:25.721Z,63.76
2018-10-06T09:38:30.517Z,65.15
2018-10-06T09:41:35.428Z,63.43
2018-10-06T09:44:40.088Z,61.16
2018-10-06T09:47:44.750Z,62.05
2018-10-06T09:50:49.488Z,60.77
2018-10-06T09:53:54.272Z,62.35
2018-10-06T09:56:59.130Z,63.15
2018-10-06T10:00:03.882Z,62.32
2018-10-06T10:03:13.590Z,60.91
2018-10-06T10:06:18.233Z,62.10
2018-10-06T10:09:22.934Z,59.85
2018-10-06T10:12:27.657Z,60.68
2018-10-06T10:15:32.304Z,61.18
2018-10-06T10:18:37.133Z,58.84
2018-10-06T10:21:41.951Z,59.33
2018-10-06T10:24:46.671Z,59.91
2018-10-06T10:27:51.485Z,57.03
2018-10-06T10:30:56.263Z,58.76
2018-10-06T10:34:00.870Z,58.99
2018-10-06T10:37:05.741Z,58.09
2018-10-06T10:40:10.479Z,55.47
2018-10-06T10:43:15.189Z,54.26
2018-10-06T10:46:19.765Z,54.13
2018-10-06T10:49:24.575Z,54.29
2018-10-06T10:52:29.317Z,53.42
2018-10-06T10:55:34.044Z,55.49
2018-10-06T10:58:38.585Z,56.77
2018-10-06T11:01:43.294Z,55.93
2018-10-06T11:04:48.057Z,57.23
2018-10-06T11:07:52.657Z,57.83
2018-10-06T11:10:57.907Z,56.17
2018-10-06T11:14:02.950Z,55.23
2018-10-06T11:17:07.666Z,56.09
2018-10-06T11:20:12.297Z,54.57
2018-10-06T11:23:17.021Z,55.04
2018-10-06T11:26:21.746Z,56.93
2018-10-06T11:29:26.578Z,55.24
2018-10-06T11:32:31.471Z,53.71
2018-10-06T11:35:36.539Z,52.20
2018-10-06T11:38:41.121Z,52.95
2018-10-06T11:41:45.930Z,53.02
2018-10-06T11:44:50.774Z,53.79
2018-10-06T11:47:55.486Z,51.82
2018-10-06T11:51:00.165Z,52.16
2018-10-06T11:54:04.832Z,51.71
2018-10-06T11:57:09.659Z,51.76
2018-10-06T12:00:14.488Z,51.31
2018-10-06T12:03:19.225Z,51.34
2018-10-06T12:06:24.044Z,52.25
2018-10-06T12:09:28.613Z,50.98
2018-10-06T12:12:33.355Z,50.11
2018-10-06T12:15:37.908Z,50.42
2018-10-06T12:18:42.587Z,49.39
2018-10-06T12:21:47.386Z,48.75
2018-10-06T12:24:52.077Z,48.87
2018-10-06T12:27:56.855Z,49.05
2018-10-06T12:31:01.431Z,49.35
2018-10-06T12:34:06.122Z,49.75
2018-10-06T12:37:10.723Z,51.95
2018-10-06T12:40:15.601Z,51.07
2018-10-06T12:43:20.568Z,49.93
2018-10-06T12:46:25.291Z,49.89
2018-10-06T12:49:30.013Z,48.79
2018-10-06T12:52:34.794Z,49.27
2018-10-06T12:55:39.563Z,48.30
2018-10-06T12:58:44.351Z,48.94
2018-10-06T13:01:49.129Z,47.18
2018-10-06T13:04:53.937Z,46.50
2018-10-06T13:07:58.591Z,47.46
2018-10-06T13:11:03.529Z,47.15
2018-10-06T13:14:08.391Z,47.24
2018-10-06T13:17:13.177Z,47.40
2018-10-06T13:20:18.330Z,49.12
2018-10-06T13:23:23.091Z,48.55
2018-10-06T13:26:27.767Z,48.88
2018-10-06T13:29:32.858Z,48.22
2018-10-06T13:32:37.774Z,48.33
2018-10-06T13:35:42.490Z,49.07
2018-10-06T13:38:47.374Z,50.16
2018-10-06T13:41:52.158Z,50.20
2018-10-06T13:44:57.578Z,49.44
2018-10-06T13:48:02.611Z,51.30
2018-10-06T13:51:07.452Z,49.40
2018-10-06T13:54:12.285Z,48.88
2018-10-06T13:57:17.379Z,48.38
2018-10-06T14:00:22.461Z,46.65
2018-10-06T14:03:27.419Z,45.32
2018-10-06T14:06:32.279Z,45.62
2018-10-06T14:09:37.284Z,45.86
2018-10-06T14:12:41.954Z,46.60
2018-10-06T14:15:46.865Z,49.22
2018-10-06T14:18:51.709Z,49.28
2018-10-06T14:21:56.568Z,49.32
2018-10-06T14:25:01.131Z,48.34
2018-10-06T14:28:05.848Z,48.47
2018-10-06T14:31:10.553Z,48.21
2018-10-06T14:34:15.219Z,48.41
2018-10-06T14:37:19.845Z,50.13
2018-10-06T14:40:24.783Z,48.84
2018-10-06T14:43:29.362Z,48.08
2018-10-06T14:46:33.974Z,47.57
2018-10-06T14:49:38.531Z,47.61
2018-10-06T14:52:43.256Z,50.59
2018-10-06T14:55:47.944Z,51.12
2018-10-06T14:58:52.578Z,52.04
2018-10-06T15:01:57.340Z,51.55
2018-10-06T15:05:01.958Z,51.82
2018-10-06T15:08:06.940Z,53.18
2018-10-06T15:11:11.533Z,53.87
2018-10-06T15:14:16.198Z,49.89
2018-10-06T15:17:20.839Z,51.35
2018-10-06T15:20:25.597Z,52.79
2018-10-06T15:23:30.149Z,52.66
2018-10-06T15:26:34.723Z,54.76
2018-10-06T15:29:39.469Z,57.69
2018-10-06T15:32:44.098Z,54.83
2018-10-06T15:35:48.945Z,55.68
2018-10-06T15:38:53.727Z,56.16
2018-10-06T15:41:58.530Z,57.58
2018-10-06T15:45:03.229Z,57.44
2018-10-06T15:48:08.101Z,58.42
2018-10-06T15:51:12.900Z,59.69
2018-10-06T15:54:17.411Z,60.49
2018-10-06T15:57:22.017Z,61.74
2018-10-06T16:00:26.625Z,62.53
2018-10-06T16:03:31.229Z,63.46
2018-10-06T16:06:35.859Z,63.61
2018-10-06T16:09:40.415Z,65.23
2018-10-06T16:12:44.937Z,66.23
2018-10-06T16:15:49.528Z,66.27
2018-10-06T16:18:54.261Z,66.79
2018-10-06T16:21:58.819Z,65.92
2018-10-06T16:25:03.476Z,64.39
2018-10-06T16:28:08.162Z,66.31
2018-10-06T16:31:12.941Z,66.91
2018-10-06T16:34:17.578Z,67.13
2018-10-06T16:37:22.410Z,67.91
2018-10-06T16:40:27.075Z,68.43
2018-10-06T16:43:31.765Z,69.63
2018-10-06T16:46:36.519Z,72.54
2018-10-06T16:49:41.375Z,73.69
2018-10-06T16:52:46.158Z,73.95
2018-10-06T16:55:50.764Z,72.47
2018-10-06T16:58:55.372Z,72.43
2018-10-06T17:02:00.373Z,73.31
2018-10-06T17:05:05.549Z,72.59
2018-10-06T17:08:10.098Z,72.49
2018-10-06T17:11:14.761Z,71.46
2018-10-06T17:14:19.653Z,71.64
2018-10-06T17:17:24.288Z,73.29
2018-10-06T17:20:28.908Z,73.91
2018-10-06T17:23:33.980Z,73.94
2018-10-06T17:26:38.914Z,74.00
2018-10-06T17:29:43.837Z,74.85
2018-10-06T17:32:48.602Z,74.98
2018-10-06T17:35:53.348Z,75.48
2018-10-06T17:38:58.433Z,77.37
2018-10-06T17:42:03.263Z,78.79
2018-10-06T17:45:08.079Z,78.87
2018-10-06T17:48:12.853Z,78.42
2018-10-06T17:51:17.648Z,78.90
2018-10-06T17:54:22.349Z,78.94
2018-10-06T17:57:27.090Z,79.49
2018-10-06T18:00:31.926Z,79.06
2018-10-06T18:03:36.776Z,80.04
2018-10-06T18:06:41.440Z,80.11
2018-10-06T18:09:46.082Z,80.14
2018-10-06T18:12:50.909Z,79.68
2018-10-06T18:15:55.625Z,79.03
2018-10-06T18:19:00.535Z,79.37
2018-10-06T18:22:05.420Z,80.22
2018-10-06T18:25:10.097Z,80.88
2018-10-06T18:28:14.780Z,80.73
2018-10-06T18:31:19.577Z,80.25
2018-10-06T18:34:24.282Z,80.14
2018-10-06T18:37:28.829Z,81.34
2018-10-06T18:40:33.441Z,81.18
2018-10-06T18:43:38.297Z,80.55
2018-10-06T18:46:42.811Z,79.79
2018-10-06T18:49:47.375Z,79.50
2018-10-06T18:52:52.025Z,79.83
2018-10-06T18:55:56.760Z,80.06
2018-10-06T18:59:01.393Z,80.61
2018-10-06T19:02:06.429Z,81.14
2018-10-06T19:05:11.563Z,81.26
2018-10-06T19:08:16.593Z,81.97
2018-10-06T19:11:21.512Z,82.19
2018-10-06T19:14:26.430Z,81.86
2018-10-06T19:17:31.560Z,82.71
2018-10-06T19:20:36.688Z,83.13
2018-10-06T19:23:41.730Z,83.07
2018-10-06T19:26:46.658Z,83.55
2018-10-06T19:29:51.592Z,83.13
2018-10-06T19:32:56.711Z,83.50
2018-10-06T19:36:01.647Z,83.83
2018-10-06T19:39:08.559Z,83.78
2018-10-06T19:42:13.696Z,83.56
2018-10-06T19:45:18.582Z,83.36
2018-10-06T19:48:24.406Z,83.80
2018-10-06T19:51:29.649Z,83.04
2018-10-06T19:54:34.666Z,82.71
2018-10-06T19:57:39.830Z,82.88
2018-10-06T20:00:44.953Z,83.56
2018-10-06T20:03:49.892Z,83.70
2018-10-06T20:06:54.911Z,83.68
2018-10-06T20:09:59.883Z,83.97
2018-10-06T20:13:04.842Z,84.06
2018-10-06T20:16:09.749Z,84.93
2018-10-06T20:19:14.712Z,84.55
2018-10-06T20:22:19.792Z,85.06
2018-10-06T20:25:24.459Z,84.45
2018-10-06T20:28:29.224Z,84.22
2018-10-06T20:31:33.742Z,84.46
2018-10-06T20:34:38.337Z,85.21
2018-10-06T20:37:42.997Z,84.74
2018-10-06T20:40:47.592Z,85.37
2018-10-06T20:43:52.440Z,86.34
2018-10-06T20:46:56.995Z,86.50
2018-10-06T20:50:01.666Z,86.61
2018-10-06T20:53:06.637Z,87.83
2018-10-06T20:56:11.330Z,88.04
2018-10-06T20:59:15.992Z,88.20
2018-10-06T21:02:20.723Z,88.71
2018-10-06T21:05:25.294Z,88.59
2018-10-06T21:08:29.855Z,88.59
2018-10-06T21:11:34.539Z,89.67
2018-10-06T21:14:39.153Z,89.58
2018-10-06T21:17:43.721Z,90.12
2018-10-06T21:20:48.326Z,90.30
2018-10-06T21:23:52.973Z,90.42
2018-10-06T21:26:57.648Z,90.78
2018-10-06T21:30:02.374Z,91.10
2018-10-06T21:33:06.935Z,91.04
2018-10-06T21:36:11.568Z,91.54
2018-10-06T21:39:16.245Z,91.76
2018-10-06T21:42:20.901Z,91.39
2018-10-06T21:45:25.659Z,91.88
2018-10-06T21:48:30.535Z,92.07
2018-10-06T21:51:35.553Z,91.79
2018-10-06T21:54:40.161Z,91.83
2018-10-06T21:57:44.888Z,92.30
2018-10-06T22:00:54.699Z,92.31
2018-10-06T22:03:59.334Z,92.32
2018-10-06T22:07:03.979Z,91.70
2018-10-06T22:10:08.671Z,92.70
2018-10-06T22:13:13.284Z,92.69
2018-10-06T22:16:18.009Z,92.62
2018-10-06T22:19:22.629Z,93.65
2018-10-06T22:22:27.171Z,92.87
2018-10-06T22:25:31.993Z,93.24
2018-10-06T22:28:36.590Z,93.91
2018-10-06T22:31:41.265Z,94.03
2018-10-06T22:34:45.788Z,93.66
2018-10-06T22:37:50.364Z,94.64
2018-10-06T22:40:55.153Z,94.59
2018-10-06T22:43:59.731Z,94.99
2018-10-06T22:47:04.265Z,94.81
2018-10-06T22:50:08.861Z,95.26
2018-10-06T22:53:13.658Z,94.86
2018-10-06T22:56:18.261Z,94.66
2018-10-06T22:59:22.875Z,95.05
2018-10-06T23:02:27.780Z,94.96
2018-10-06T23:05:32.384Z,95.57
2018-10-06T23:08:36.946Z,94.96
2018-10-06T23:11:41.665Z,95.27
2018-10-06T23:14:46.205Z,95.16
2018-10-06T23:17:50.796Z,96.19
2018-10-06T23:20:55.448Z,95.36
2018-10-06T23:24:00.530Z,95.81
2018-10-06T23:27:05.656Z,95.68
2018-10-06T23:30:10.257Z,95.82
2018-10-06T23:33:14.931Z,96.50
2018-10-06T23:36:19.981Z,96.47
2018-10-06T23:39:24.539Z,96.61
2018-10-06T23:42:29.350Z,96.91
2018-10-06T23:45:33.895Z,96.30
2018-10-06T23:48:38.490Z,96.48
2018-10-06T23:51:43.088Z,96.71
2018-10-06T23:54:47.715Z,96.46
2018-10-06T23:57:52.272Z,96.81
